Gulf Islands National Seasho, Mississippi
Current Conditions -  °F | °C
As of 5:58 AM on Wednesday 28 Jan 2015 (Local Time) from KBIX Reporting Station
Clear Clear  
Wind Chill: 39°   Ceiling: Unl
Heat Index: 42°   Visibility: 10mi
Dew Point: 35°   Wind: 5mph
Humidity: 78%   Direction: 50°NE
Pressure: 30.24"   Gusts: NA
Location:  30.418°N, 88.7558°W
Report Text: KBIX 281158Z AUTO 05004KT 10SM CLR 05/02 A3024 RMK AO2 SLP243 T00540019 10111 20053 53017
Loading
Personal Weather Stations






























Interactive Weather Map New forecast layout! Learn more

10-Day Weather Forecast

Advertisements
Track Severe Weather on mobile